Time;durP1;ratioP1;P1;durP2;ratioP2;P2;SDS_P1;SDS_P2;PMS_P1;PMS_P2;Temp;Humidity;BMP_temperature;BMP_pressure;BME280_temperature;BME280_humidity;BME280_pressure;Samples;Min_cycle;Max_cycle;Signal;HPM_P1;HPM_P2
2020/12/16 00:01:32;;;;;;;57.80;22.40;;;;;;;2.77;100.00;96422.47;5028731;28;20041;-55
2020/12/16 00:03:59;;;;;;;58.42;21.48;;;;;;;2.73;100.00;96423.59;5025579;28;20045;-57
2020/12/16 00:06:27;;;;;;;61.60;22.08;;;;;;;2.74;100.00;96427.88;5004342;28;20399;-56
2020/12/16 00:08:54;;;;;;;58.88;21.00;;;;;;;2.66;100.00;96437.94;5031581;28;20043;-55
2020/12/16 00:11:21;;;;;;;58.60;20.77;;;;;;;2.57;100.00;96439.34;4987295;28;20169;-52
2020/12/16 00:13:48;;;;;;;72.22;23.92;;;;;;;2.66;100.00;96443.16;5022964;28;20077;-53
2020/12/16 00:16:15;;;;;;;57.55;20.88;;;;;;;2.69;100.00;96442.97;4991658;28;20051;-55
2020/12/16 00:18:42;;;;;;;62.60;21.73;;;;;;;2.70;100.00;96444.63;5029341;28;20060;-54
2020/12/16 00:21:09;;;;;;;60.50;22.27;;;;;;;2.77;100.00;96454.56;4990784;28;20049;-50
2020/12/16 00:23:36;;;;;;;68.45;22.17;;;;;;;2.86;100.00;96445.34;5035275;28;20048;-52
2020/12/16 00:26:03;;;;;;;58.45;20.23;;;;;;;2.93;100.00;96443.19;4992233;28;20122;-54
2020/12/16 00:28:30;;;;;;;61.53;20.88;;;;;;;2.95;100.00;96449.94;5027152;28;20149;-56
2020/12/16 00:30:59;;;;;;;55.03;19.92;;;;;;;3.01;100.00;96457.38;4988432;28;20409;-52
2020/12/16 00:33:26;;;;;;;57.80;20.67;;;;;;;3.02;100.00;96460.81;5030011;28;20065;-52
2020/12/16 00:35:53;;;;;;;63.83;20.50;;;;;;;2.85;100.00;96470.50;4951035;28;20053;-56
2020/12/16 00:38:20;;;;;;;56.83;20.63;;;;;;;2.92;100.00;96460.56;5005751;28;20046;-54
2020/12/16 00:40:48;;;;;;;61.17;19.92;;;;;;;2.91;100.00;96453.69;4976766;28;20065;-55
2020/12/16 00:43:15;;;;;;;53.72;20.20;;;;;;;2.92;100.00;96463.16;5008606;28;20058;-53
2020/12/16 00:45:43;;;;;;;52.92;19.20;;;;;;;2.92;100.00;96467.53;4999050;28;20046;-58
2020/12/16 00:48:10;;;;;;;54.65;19.40;;;;;;;2.92;100.00;96472.75;5001579;28;20469;-53
2020/12/16 00:50:37;;;;;;;51.40;20.17;;;;;;;2.84;100.00;96468.03;5027790;28;20080;-53
2020/12/16 00:53:06;;;;;;;49.33;18.83;;;;;;;2.92;100.00;96478.78;4970260;28;20042;-53
2020/12/16 00:55:50;;;;;;;55.50;19.85;;;;;;;2.98;100.00;96477.56;5022606;28;20049;-51
2020/12/16 00:58:19;;;;;;;60.93;20.70;;;;;;;2.91;100.00;96469.31;4993536;28;20045;-53
2020/12/16 01:00:51;;;;;;;50.25;19.65;;;;;;;2.65;100.00;96470.09;5031015;28;20586;-52
2020/12/16 01:03:24;;;;;;;54.88;19.60;;;;;;;2.67;100.00;96470.84;4982961;28;20050;-54
2020/12/16 01:05:52;;;;;;;56.20;20.00;;;;;;;2.67;100.00;96466.47;5026268;28;20077;-55
2020/12/16 01:08:20;;;;;;;55.15;19.50;;;;;;;2.72;100.00;96461.84;4976463;28;20068;-52
2020/12/16 01:10:48;;;;;;;57.10;19.75;;;;;;;2.76;100.00;96452.06;5023700;28;20041;-52
2020/12/16 01:13:17;;;;;;;46.10;17.85;;;;;;;2.70;100.00;96455.03;4998286;28;20037;-56
2020/12/16 01:15:45;;;;;;;51.63;19.67;;;;;;;2.65;100.00;96452.75;5022792;28;20046;-55
2020/12/16 01:18:11;;;;;;;44.97;17.33;;;;;;;2.68;100.00;96451.69;4974335;28;20125;-57
2020/12/16 01:20:43;;;;;;;41.40;15.55;;;;;;;2.69;100.00;96456.00;5033746;28;20047;-52
2020/12/16 01:23:23;;;;;;;39.67;16.10;;;;;;;2.64;100.00;96452.81;4987228;28;20075;-52
2020/12/16 01:25:50;;;;;;;39.13;15.43;;;;;;;2.61;100.00;96457.31;5037484;28;20132;-53
2020/12/16 01:28:18;;;;;;;41.28;15.98;;;;;;;2.55;100.00;96449.03;5006181;28;20057;-54
2020/12/16 01:30:52;;;;;;;36.95;14.60;;;;;;;2.58;100.00;96448.81;5029872;28;20508;-55
2020/12/16 01:33:20;;;;;;;38.22;15.05;;;;;;;2.51;100.00;96452.75;4987093;28;20037;-54
2020/12/16 01:35:58;;;;;;;33.35;14.38;;;;;;;2.48;100.00;96455.53;5024440;28;20103;-55
2020/12/16 01:38:26;;;;;;;35.85;14.98;;;;;;;2.44;100.00;96448.84;4999914;28;20056;-56
2020/12/16 01:41:03;;;;;;;37.28;15.40;;;;;;;2.36;100.00;96449.31;5036282;28;20439;-55
2020/12/16 01:43:36;;;;;;;36.17;15.77;;;;;;;2.34;100.00;96451.19;4987408;28;20040;-53
2020/12/16 01:46:05;;;;;;;38.67;14.88;;;;;;;2.35;100.00;96450.25;5046571;28;20049;-53
2020/12/16 01:48:35;;;;;;;37.42;14.50;;;;;;;2.27;100.00;96448.16;4991914;28;22850;-57
2020/12/16 01:51:02;;;;;;;40.25;15.80;;;;;;;2.23;100.00;96449.22;5038201;28;20049;-56
2020/12/16 01:53:30;;;;;;;31.73;13.93;;;;;;;2.25;100.00;96447.38;4985599;28;20049;-58
2020/12/16 01:55:58;;;;;;;36.65;14.45;;;;;;;2.28;100.00;96443.78;5008241;28;20416;-56
2020/12/16 01:58:42;;;;;;;37.47;15.80;;;;;;;2.28;100.00;96443.78;4957321;28;20049;-56
2020/12/16 02:01:15;;;;;;;36.10;14.35;;;;;;;2.24;100.00;96452.69;5004539;28;20408;-54
2020/12/16 02:03:44;;;;;;;32.50;14.27;;;;;;;2.16;100.00;96450.53;5012802;28;20041;-54
2020/12/16 02:06:20;;;;;;;38.75;14.50;;;;;;;2.22;100.00;96454.53;5023183;28;21098;-50
2020/12/16 02:08:50;;;;;;;42.15;15.82;;;;;;;2.13;100.00;96463.72;5001308;28;20080;-55
2020/12/16 02:11:19;;;;;;;36.70;14.80;;;;;;;2.20;100.00;96459.00;4988914;28;20127;-54
2020/12/16 02:13:56;;;;;;;39.97;14.55;;;;;;;2.22;100.00;96472.75;5024048;28;20037;-52
2020/12/16 02:16:23;;;;;;;37.97;14.15;;;;;;;2.15;100.00;96467.09;5000678;28;20494;-52
2020/12/16 02:18:52;;;;;;;42.53;14.95;;;;;;;2.11;100.00;96456.03;5021375;28;20056;-53
2020/12/16 02:21:28;;;;;;;40.03;14.80;;;;;;;2.03;100.00;96455.66;4977812;28;20061;-53
2020/12/16 02:24:03;;;;;;;40.35;14.88;;;;;;;2.18;100.00;96458.28;5049717;28;20044;-55
2020/12/16 02:26:35;;;;;;;41.92;15.98;;;;;;;2.08;100.00;96455.38;4987439;28;20045;-54
2020/12/16 02:29:05;;;;;;;42.22;16.63;;;;;;;2.45;100.00;96453.16;5025565;28;20037;-51
2020/12/16 02:31:34;;;;;;;42.08;16.35;;;;;;;2.47;100.00;96462.50;4998495;28;20392;-56
2020/12/16 02:34:08;;;;;;;40.13;15.52;;;;;;;2.49;100.00;96465.03;5033400;28;20042;-55
2020/12/16 02:36:39;;;;;;;48.25;15.85;;;;;;;2.45;100.00;96453.97;4985191;28;20037;-54
2020/12/16 02:39:10;;;;;;;40.88;14.90;;;;;;;2.40;100.00;96452.56;5024696;28;20504;-53
2020/12/16 02:42:02;;;;;;;45.28;16.27;;;;;;;2.41;100.00;96446.44;4990958;28;20137;-52
2020/12/16 02:44:30;;;;;;;48.10;17.92;;;;;;;2.36;100.00;96450.16;5060304;28;20446;-55
2020/12/16 02:47:06;;;;;;;45.38;17.42;;;;;;;2.53;100.00;96453.50;4989782;28;20047;-55
2020/12/16 02:49:36;;;;;;;43.10;16.00;;;;;;;2.54;100.00;96452.56;5027948;28;20052;-53
2020/12/16 02:52:04;;;;;;;43.17;16.60;;;;;;;2.56;100.00;96453.31;5016011;28;20490;-54
2020/12/16 02:54:32;;;;;;;49.13;17.13;;;;;;;2.66;100.00;96453.56;5026074;28;20519;-53
2020/12/16 02:57:10;;;;;;;52.92;18.42;;;;;;;2.51;100.00;96458.81;4994861;28;20520;-54
2020/12/16 02:59:39;;;;;;;43.70;16.10;;;;;;;2.40;100.00;96456.00;5025029;28;20038;-48
2020/12/16 03:02:32;;;;;;;66.53;21.52;;;;;;;2.35;100.00;96453.69;4970292;28;20143;-56
2020/12/16 03:05:19;;;;;;;59.03;18.17;;;;;;;2.42;100.00;96446.34;5026898;28;20045;-49
2020/12/16 03:07:46;;;;;;;139.65;25.25;;;;;;;2.42;100.00;96448.97;4982968;28;20069;-52
2020/12/16 03:10:13;;;;;;;93.93;18.67;;;;;;;2.53;100.00;96445.69;5063280;28;20053;-52
2020/12/16 03:12:41;;;;;;;190.60;24.90;;;;;;;2.51;100.00;96452.75;4997096;28;20063;-53
2020/12/16 03:15:09;;;;;;;163.27;19.23;;;;;;;2.53;100.00;96446.50;5023059;28;20044;-56
2020/12/16 03:17:36;;;;;;;179.93;19.27;;;;;;;2.55;100.00;96439.47;4995503;28;20104;-53
2020/12/16 03:20:06;;;;;;;239.13;23.47;;;;;;;2.46;100.00;96442.63;5038066;28;20057;-56
2020/12/16 03:22:34;;;;;;;146.38;18.77;;;;;;;2.59;100.00;96451.34;4983149;28;20038;-52
2020/12/16 03:25:21;;;;;;;194.85;21.17;;;;;;;2.58;100.00;96452.28;5020093;28;20059;-53
2020/12/16 03:28:25;;;;;;;174.10;18.73;;;;;;;2.59;100.00;96453.94;5005043;28;20115;-51
2020/12/16 03:31:13;;;;;;;161.73;18.92;;;;;;;2.68;100.00;96456.91;5020755;28;20045;-56
2020/12/16 03:33:56;;;;;;;117.40;16.73;;;;;;;2.52;100.00;96450.06;4995571;28;20050;-53
2020/12/16 03:36:39;;;;;;;235.30;23.20;;;;;;;2.36;100.00;96454.53;5014617;28;20064;-52
2020/12/16 03:39:08;;;;;;;221.52;22.23;;;;;;;2.44;100.00;96451.44;5006147;28;20054;-55
2020/12/16 03:41:35;;;;;;;233.45;21.85;;;;;;;2.41;100.00;96452.50;5023731;28;20074;-54
2020/12/16 03:44:05;;;;;;;213.18;21.58;;;;;;;2.41;100.00;96459.44;4974283;28;20116;-56
2020/12/16 03:46:38;;;;;;;144.70;20.35;;;;;;;2.38;100.00;96453.50;5017969;28;20065;-54
2020/12/16 03:49:05;;;;;;;141.05;17.40;;;;;;;2.38;100.00;96450.91;4986836;28;20455;-54
2020/12/16 03:51:34;;;;;;;108.88;17.63;;;;;;;2.49;100.00;96450.25;5033214;28;20771;-52
2020/12/16 03:54:04;;;;;;;214.47;24.93;;;;;;;2.44;100.00;96443.63;5005926;28;20065;-49
2020/12/16 03:56:53;;;;;;;202.07;21.40;;;;;;;2.37;100.00;96443.19;5022610;28;20053;-52
2020/12/16 03:59:31;;;;;;;190.00;19.85;;;;;;;2.56;100.00;96448.09;4975299;28;20045;-53
2020/12/16 04:02:09;;;;;;;183.73;20.45;;;;;;;2.56;100.00;96445.50;5022362;28;20057;-49
2020/12/16 04:04:43;;;;;;;104.20;17.05;;;;;;;2.67;100.00;96450.03;4980424;28;20208;-54
2020/12/16 04:07:11;;;;;;;190.77;19.30;;;;;;;2.71;100.00;96460.13;5057584;28;20046;-56
2020/12/16 04:09:50;;;;;;;211.70;24.52;;;;;;;2.55;100.00;96459.44;5014812;28;20037;-54
2020/12/16 04:12:17;;;;;;;273.40;24.23;;;;;;;2.65;100.00;96459.69;5037944;28;20061;-51
2020/12/16 04:14:45;;;;;;;152.18;19.27;;;;;;;2.65;100.00;96462.28;4991956;28;20423;-53
2020/12/16 04:17:15;;;;;;;186.57;23.23;;;;;;;2.75;100.00;96473.81;5006053;28;20065;-53
2020/12/16 04:20:04;;;;;;;257.20;23.63;;;;;;;2.75;100.00;96476.41;4975871;28;20389;-52
2020/12/16 04:22:34;;;;;;;144.15;19.67;;;;;;;2.78;100.00;96476.22;5015774;28;20129;-55
2020/12/16 04:25:03;;;;;;;84.20;17.10;;;;;;;2.79;100.00;96483.94;4975331;28;20053;-54
2020/12/16 04:27:34;;;;;;;106.75;18.23;;;;;;;2.96;100.00;96485.50;5022375;28;20120;-51
2020/12/16 04:30:04;;;;;;;105.70;15.60;;;;;;;2.91;100.00;96491.91;4990464;28;20489;-51
2020/12/16 04:32:40;;;;;;;194.68;19.80;;;;;;;2.94;100.00;96496.94;5042263;28;20045;-54
2020/12/16 04:35:09;;;;;;;194.98;19.17;;;;;;;2.81;100.00;96489.88;4971405;28;20068;-56
2020/12/16 04:37:39;;;;;;;125.95;19.08;;;;;;;2.80;100.00;96496.03;5012529;28;20451;-51
2020/12/16 04:40:06;;;;;;;134.75;19.33;;;;;;;2.92;100.00;96486.59;4999756;28;20042;-53
2020/12/16 04:42:33;;;;;;;202.35;21.85;;;;;;;2.92;100.00;96485.75;5033429;28;20121;-56
2020/12/16 04:45:00;;;;;;;256.13;23.58;;;;;;;2.89;100.00;96492.03;5005343;28;20093;-56
2020/12/16 04:47:32;;;;;;;233.60;18.58;;;;;;;2.90;100.00;96493.69;5015615;28;20488;-52
2020/12/16 04:50:09;;;;;;;233.07;19.02;;;;;;;2.83;100.00;96490.63;5064624;28;20559;-56
2020/12/16 04:52:48;;;;;;;137.20;16.45;;;;;;;2.83;100.00;96495.00;5058690;28;20060;-53
2020/12/16 04:55:38;;;;;;;247.65;21.40;;;;;;;2.59;100.00;96503.41;4993613;28;20040;-51
2020/12/16 04:58:33;;;;;;;327.35;24.50;;;;;;;2.61;100.00;96498.97;5024440;28;20507;-55
2020/12/16 05:01:01;;;;;;;261.52;21.25;;;;;;;2.55;100.00;96501.94;4993182;28;20053;-54
2020/12/16 05:03:36;;;;;;;263.58;20.23;;;;;;;2.53;100.00;96493.38;5034022;28;20407;-53
2020/12/16 05:06:34;;;;;;;219.07;20.08;;;;;;;2.65;100.00;96502.19;4996512;28;20060;-52
2020/12/16 05:09:05;;;;;;;155.63;17.10;;;;;;;2.76;100.00;96496.31;5025489;28;20516;-53
2020/12/16 05:11:39;;;;;;;302.70;24.58;;;;;;;2.68;100.00;96493.34;4997770;28;20121;-54
2020/12/16 05:14:15;;;;;;;301.23;22.33;;;;;;;2.61;100.00;96496.34;5034121;28;20049;-56
2020/12/16 05:16:51;;;;;;;239.45;20.58;;;;;;;2.61;100.00;96505.91;4992052;28;20053;-55
2020/12/16 05:19:30;;;;;;;297.95;23.92;;;;;;;2.51;100.00;96508.25;5037900;28;20049;-55
2020/12/16 05:22:21;;;;;;;100.57;15.77;;;;;;;2.76;100.00;96498.94;4983321;28;20073;-54
2020/12/16 05:24:50;;;;;;;122.03;16.60;;;;;;;2.87;100.00;96506.91;5013212;28;20100;-54
2020/12/16 05:27:22;;;;;;;278.70;20.23;;;;;;;2.85;100.00;96506.97;4962669;28;20473;-54
2020/12/16 05:29:54;;;;;;;206.05;18.85;;;;;;;2.94;100.00;96504.75;5029675;28;20034;-56
2020/12/16 05:32:25;;;;;;;197.30;18.30;;;;;;;2.87;100.00;96498.25;4990641;28;20041;-54
2020/12/16 05:34:54;;;;;;;;;;;;;;;2.81;100.00;96505.50;5029830;28;20466;-56
2020/12/16 05:37:29;;;;;;;206.05;18.67;;;;;;;2.78;100.00;96505.69;4984962;28;23173;-54
2020/12/16 05:39:58;;;;;;;142.40;16.75;;;;;;;2.79;100.00;96503.94;5024249;28;20116;-52
2020/12/16 05:42:26;;;;;;;124.00;17.30;;;;;;;2.94;100.00;96507.34;4987259;28;20053;-54
2020/12/16 05:44:54;;;;;;;108.75;16.52;;;;;;;2.96;100.00;96503.72;5002714;28;20041;-55
2020/12/16 05:47:21;;;;;;;128.50;16.83;;;;;;;2.87;100.00;96506.06;5026891;28;20577;-53
2020/12/16 05:49:48;;;;;;;202.13;19.10;;;;;;;2.79;100.00;96506.56;4962002;28;20382;-54
2020/12/16 05:52:17;;;;;;;254.18;22.15;;;;;;;2.69;100.00;96505.44;5018087;28;20045;-53
2020/12/16 05:54:48;;;;;;;213.88;19.15;;;;;;;2.76;100.00;96507.56;4988245;28;20042;-52
2020/12/16 05:57:18;;;;;;;157.80;18.25;;;;;;;2.77;100.00;96511.84;5004951;28;20532;-55
2020/12/16 06:00:07;;;;;;;143.40;16.92;;;;;;;2.72;100.00;96516.50;4978808;28;20077;-53
2020/12/16 06:02:41;;;;;;;226.15;20.45;;;;;;;2.70;100.00;96509.72;5005684;28;20056;-53
2020/12/16 06:05:11;;;;;;;230.35;21.67;;;;;;;2.61;100.00;96524.13;4971073;28;20058;-53
2020/12/16 06:07:40;;;;;;;200.20;18.83;;;;;;;2.70;100.00;96530.53;5005406;28;20068;-54
2020/12/16 06:10:07;;;;;;;245.63;22.02;;;;;;;2.72;100.00;96539.09;4964027;28;20045;-50
2020/12/16 06:12:38;;;;;;;248.18;22.92;;;;;;;2.70;100.00;96536.59;5060782;28;20630;-55
2020/12/16 06:15:08;;;;;;;263.42;20.50;;;;;;;2.82;100.00;96532.38;4990550;28;20137;-55
2020/12/16 06:17:40;;;;;;;309.20;23.33;;;;;;;2.72;100.00;96528.66;5033545;28;20049;-57
2020/12/16 06:20:11;;;;;;;194.27;17.95;;;;;;;2.75;100.00;96518.94;4975040;28;20042;-54
2020/12/16 06:22:39;;;;;;;264.47;23.63;;;;;;;2.81;100.00;96517.69;5003010;28;20033;-55
2020/12/16 06:25:08;;;;;;;191.18;20.67;;;;;;;2.85;100.00;96519.16;4976351;28;20128;-53
2020/12/16 06:27:44;;;;;;;182.95;19.73;;;;;;;2.77;100.00;96513.63;5022022;28;20581;-51
2020/12/16 06:30:15;;;;;;;96.93;16.17;;;;;;;2.70;100.00;96513.16;4991205;28;20042;-55
2020/12/16 06:32:45;;;;;;;174.80;18.83;;;;;;;2.76;100.00;96520.59;5035357;28;20041;-54
2020/12/16 06:35:13;;;;;;;;;;;;;;;2.78;100.00;96518.72;4977315;28;20520;-55
2020/12/16 06:37:43;;;;;;;184.93;20.08;;;;;;;2.84;100.00;96525.31;5002398;28;19928;-53
2020/12/16 06:40:11;;;;;;;116.75;18.40;;;;;;;2.72;100.00;96532.13;4969719;28;20038;-52
2020/12/16 06:42:38;;;;;;;229.05;21.20;;;;;;;2.75;100.00;96529.34;5003774;28;20137;-55
2020/12/16 06:45:15;;;;;;;180.20;20.35;;;;;;;2.70;100.00;96536.59;4967128;28;20054;-56
2020/12/16 06:47:42;;;;;;;141.57;18.23;;;;;;;2.72;100.00;96534.75;5025190;28;20057;-54
2020/12/16 06:50:17;;;;;;;177.27;19.23;;;;;;;2.73;100.00;96540.78;4979203;28;20794;-56
2020/12/16 06:52:45;;;;;;;75.30;15.57;;;;;;;2.78;100.00;96534.34;5007955;28;20128;-56
2020/12/16 06:55:12;;;;;;;104.10;15.52;;;;;;;2.82;100.00;96535.84;4967187;28;20042;-53
2020/12/16 06:57:47;;;;;;;125.65;16.83;;;;;;;2.75;100.00;96547.56;5017013;28;20581;-50
2020/12/16 07:00:20;;;;;;;213.40;18.75;;;;;;;2.91;100.00;96538.78;5006940;28;20050;-57
2020/12/16 07:02:49;;;;;;;154.05;16.98;;;;;;;2.64;100.00;96547.38;5031209;28;20049;-51
2020/12/16 07:05:43;;;;;;;135.98;47.45;;;;;;;2.64;100.00;96549.13;4999226;28;20066;-56
2020/12/16 07:08:11;;;;;;;217.32;63.47;;;;;;;2.64;100.00;96543.94;5008794;28;20100;-55
2020/12/16 07:10:47;;;;;;;105.90;32.45;;;;;;;2.74;100.00;96543.28;4999614;28;20045;-57
2020/12/16 07:13:26;;;;;;;146.70;19.48;;;;;;;2.76;100.00;96551.84;5014415;28;20075;-52
2020/12/16 07:15:56;;;;;;;184.82;19.75;;;;;;;3.01;100.00;96558.97;4983966;28;20046;-54
2020/12/16 07:18:42;;;;;;;157.02;18.23;;;;;;;3.08;100.00;96557.63;5035890;28;20124;-51
2020/12/16 07:21:26;;;;;;;119.97;17.70;;;;;;;3.10;100.00;96567.97;4995428;28;20103;-55
2020/12/16 07:23:57;;;;;;;213.55;20.58;;;;;;;3.11;100.00;96561.84;5024647;28;20061;-55
2020/12/16 07:26:26;;;;;;;100.03;17.13;;;;;;;3.19;100.00;96561.34;4962084;28;20046;-56
2020/12/16 07:28:53;;;;;;;144.70;20.63;;;;;;;3.22;100.00;96559.38;5013959;28;20505;-55
2020/12/16 07:31:20;;;;;;;113.10;17.15;;;;;;;3.26;100.00;96563.47;5023190;28;20079;-53
2020/12/16 07:33:47;;;;;;;116.47;20.20;;;;;;;3.31;100.00;96565.78;4997845;28;20110;-56
2020/12/16 07:36:15;;;;;;;144.20;18.30;;;;;;;3.27;100.00;96566.94;5022707;28;21449;-54
2020/12/16 07:38:53;;;;;;;185.45;20.48;;;;;;;3.39;100.00;96566.13;4998312;28;20581;-52
2020/12/16 07:41:27;;;;;;;188.07;19.83;;;;;;;3.52;100.00;96568.78;5024902;28;20041;-52
2020/12/16 07:43:56;;;;;;;150.93;19.25;;;;;;;3.63;100.00;96574.16;4983578;28;20068;-54
2020/12/16 07:46:23;;;;;;;116.22;18.20;;;;;;;3.39;100.00;96581.78;5028849;28;20045;-53
2020/12/16 07:48:51;;;;;;;99.93;18.38;;;;;;;3.55;100.00;96585.06;4980179;28;20427;-55
2020/12/16 07:51:18;;;;;;;121.95;17.83;;;;;;;3.64;100.00;96593.22;5036553;28;20531;-56
2020/12/16 07:53:47;;;;;;;180.95;20.45;;;;;;;3.60;100.00;96589.97;4992942;28;20065;-57
2020/12/16 07:56:15;;;;;;;106.40;19.52;;;;;;;3.37;100.00;96599.25;5021773;28;20132;-53
2020/12/16 07:58:44;;;;;;;90.43;18.70;;;;;;;3.33;100.00;96598.63;4996718;28;20877;-55
2020/12/16 08:01:13;;;;;;;70.85;21.98;;;;;;;3.20;100.00;96608.16;5024991;28;20116;-57
2020/12/16 08:03:42;;;;;;;;;;;;;;;3.25;100.00;96597.44;4980567;28;20037;-56
2020/12/16 08:06:10;;;;;;;130.15;19.67;;;;;;;3.51;100.00;96595.78;5039479;28;19931;-55
2020/12/16 08:08:44;;;;;;;114.55;19.02;;;;;;;3.38;100.00;96598.34;5000539;28;20136;-53
2020/12/16 08:11:25;;;;;;;66.57;19.05;;;;;;;3.33;100.00;96603.84;5030989;28;20126;-56
2020/12/16 08:14:02;;;;;;;84.15;22.67;;;;;;;3.78;100.00;96609.66;4988532;28;20048;-53
2020/12/16 08:16:31;;;;;;;91.68;24.13;;;;;;;3.78;100.00;96606.22;5019239;28;20038;-55
2020/12/16 08:18:58;;;;;;;85.32;22.15;;;;;;;3.76;100.00;96616.75;4978873;28;20042;-55
2020/12/16 08:21:25;;;;;;;94.30;18.92;;;;;;;3.97;100.00;96613.69;5007630;28;20038;-52
2020/12/16 08:23:54;;;;;;;142.73;47.72;;;;;;;4.22;100.00;96628.56;4972559;28;20806;-51
2020/12/16 08:26:23;;;;;;;73.43;18.73;;;;;;;4.41;100.00;96628.19;5006249;28;20041;-54
2020/12/16 08:28:51;;;;;;;94.22;20.75;;;;;;;4.49;100.00;96629.34;4972951;28;20042;-50
2020/12/16 08:31:30;;;;;;;76.20;18.60;;;;;;;4.65;100.00;96623.09;5012920;28;20037;-56
2020/12/16 08:33:58;;;;;;;83.45;19.38;;;;;;;4.69;100.00;96622.78;5000184;28;20049;-56
2020/12/16 08:36:32;;;;;;;125.45;19.15;;;;;;;4.74;100.00;96622.44;5014375;28;20042;-52
2020/12/16 08:39:05;;;;;;;110.30;18.45;;;;;;;5.08;100.00;96627.97;5009278;28;20050;-56
2020/12/16 08:41:35;;;;;;;90.97;18.17;;;;;;;4.97;100.00;96628.72;4985616;28;20042;-57
2020/12/16 08:44:05;;;;;;;82.78;17.38;;;;;;;4.89;100.00;96633.66;5001857;28;20045;-56
2020/12/16 08:46:38;;;;;;;59.35;17.55;;;;;;;4.96;100.00;96638.34;4973758;28;20053;-55
2020/12/16 08:49:05;;;;;;;61.13;16.98;;;;;;;4.93;100.00;96643.78;5008475;28;20060;-56
2020/12/16 08:51:34;;;;;;;53.70;15.20;;;;;;;4.39;100.00;96645.72;4965834;28;20087;-58
2020/12/16 08:54:03;;;;;;;68.47;16.27;;;;;;;4.50;100.00;96648.44;5028125;28;20052;-57
2020/12/16 08:56:33;;;;;;;67.63;16.10;;;;;;;4.12;100.00;96653.59;4997541;28;20068;-55
2020/12/16 08:59:08;;;;;;;69.07;15.77;;;;;;;4.20;100.00;96656.56;5027392;28;20412;-54
2020/12/16 09:01:37;;;;;;;58.65;15.98;;;;;;;4.50;100.00;96654.50;4986710;28;20547;-56
2020/12/16 09:04:05;;;;;;;51.35;16.38;;;;;;;4.55;100.00;96650.78;5035326;28;20046;-54
2020/12/16 09:06:32;;;;;;;50.75;15.32;;;;;;;4.84;100.00;96656.63;5008765;28;20565;-54
2020/12/16 09:08:59;;;;;;;52.10;16.25;;;;;;;4.80;100.00;96656.00;5025193;28;20416;-58
2020/12/16 09:11:27;;;;;;;49.35;15.02;;;;;;;4.53;100.00;96659.53;5003946;28;20511;-54
2020/12/16 09:13:58;;;;;;;37.50;13.40;;;;;;;4.85;100.00;96668.75;5023633;28;20045;-58
2020/12/16 09:16:26;;;;;;;44.13;15.70;;;;;;;5.05;100.00;96673.44;4983068;28;20042;-54
2020/12/16 09:18:54;;;;;;;52.78;15.82;;;;;;;5.25;100.00;96666.84;5032894;28;20134;-53
2020/12/16 09:21:32;;;;;;;48.25;15.23;;;;;;;4.95;100.00;96669.78;4996933;28;20037;-53
2020/12/16 09:24:01;;;;;;;50.95;16.17;;;;;;;5.31;100.00;96673.44;5026709;28;20504;-54
2020/12/16 09:26:38;;;;;;;53.25;16.80;;;;;;;5.18;100.00;96665.59;4966495;28;20104;-56
2020/12/16 09:29:17;;;;;;;53.17;15.48;;;;;;;5.47;99.10;96666.16;5027973;28;20103;-58
2020/12/16 09:31:44;;;;;;;49.05;16.90;;;;;;;5.60;98.41;96653.91;4966225;28;20034;-58
2020/12/16 09:34:12;;;;;;;46.38;16.15;;;;;;;5.53;96.41;96657.06;5017078;28;20389;-56
2020/12/16 09:36:39;;;;;;;49.95;16.15;;;;;;;5.41;96.99;96666.63;4990913;28;22733;-57
2020/12/16 09:39:08;;;;;;;46.08;15.88;;;;;;;5.23;98.41;96673.97;5005433;28;20562;-58
2020/12/16 09:41:45;;;;;;;39.83;14.25;;;;;;;5.43;98.33;96660.31;4999022;28;20042;-55
2020/12/16 09:45:09;;;;;;;50.35;15.95;;;;;;;5.01;99.22;96658.94;5004126;28;20074;-57
2020/12/16 09:48:28;;;;;;;48.00;15.48;;;;;;;5.14;100.00;96653.69;4969308;28;20045;-58
2020/12/16 09:50:57;;;;;;;44.67;15.40;;;;;;;5.26;99.28;96659.84;5035652;28;20103;-54
2020/12/16 09:53:24;;;;;;;41.80;15.48;;;;;;;5.11;100.00;96661.75;4991124;28;20124;-55
2020/12/16 09:55:53;;;;;;;39.75;15.10;;;;;;;5.19;100.00;96667.28;5010117;28;20033;-59
2020/12/16 09:58:20;;;;;;;38.55;14.00;;;;;;;5.00;99.90;96667.72;4969900;28;20046;-57
2020/12/16 10:00:47;;;;;;;35.35;14.77;;;;;;;5.13;100.00;96671.16;5012053;28;20160;-54
2020/12/16 10:03:15;;;;;;;39.40;15.98;;;;;;;5.26;100.00;96670.28;4988469;28;20056;-54
2020/12/16 10:05:42;;;;;;;41.42;18.95;;;;;;;5.16;100.00;96673.56;5026471;28;20572;-53
2020/12/16 10:08:15;;;;;;;46.27;23.63;;;;;;;4.99;100.00;96655.59;4996252;28;20137;-55
2020/12/16 10:10:44;;;;;;;36.50;13.93;;;;;;;5.36;100.00;96658.25;5024537;28;20052;-54
2020/12/16 10:13:10;;;;;;;35.95;13.95;;;;;;;5.39;99.66;96660.66;4991316;28;20136;-56
2020/12/16 10:15:38;;;;;;;34.40;13.85;;;;;;;5.15;100.00;96661.41;5041620;28;20069;-57
2020/12/16 10:18:05;;;;;;;39.80;15.45;;;;;;;5.26;100.00;96660.66;4993890;28;20046;-56
2020/12/16 10:20:32;;;;;;;37.35;17.23;;;;;;;4.70;100.00;96660.19;5026883;28;20117;-54
2020/12/16 10:23:01;;;;;;;39.97;17.17;;;;;;;4.46;100.00;96654.81;5035836;28;20056;-57
2020/12/16 10:25:29;;;;;;;37.58;14.98;;;;;;;4.60;100.00;96659.13;4976989;28;20120;-56
2020/12/16 10:27:56;;;;;;;38.28;15.77;;;;;;;4.72;100.00;96663.53;5024830;28;20050;-57
2020/12/16 10:30:25;;;;;;;40.25;16.52;;;;;;;4.86;100.00;96652.16;4982667;28;20042;-55
2020/12/16 10:32:58;;;;;;;34.37;15.17;;;;;;;4.93;100.00;96650.78;5036012;28;20045;-51
2020/12/16 10:35:28;;;;;;;36.15;14.13;;;;;;;4.74;100.00;96661.63;5000897;28;20863;-50
2020/12/16 10:37:55;;;;;;;32.03;14.07;;;;;;;5.12;100.00;96663.41;5023059;28;20082;-49
2020/12/16 10:40:22;;;;;;;38.50;16.08;;;;;;;5.16;100.00;96651.78;4998361;28;20091;-48
2020/12/16 10:42:50;;;;;;;42.33;23.75;;;;;;;4.97;100.00;96654.84;5017929;28;20042;-51
2020/12/16 10:45:17;;;;;;;34.25;15.98;;;;;;;5.05;100.00;96652.53;4963087;28;20053;-50
2020/12/16 10:47:44;;;;;;;33.47;15.25;;;;;;;4.87;100.00;96657.25;5030376;28;20049;-51
2020/12/16 10:50:11;;;;;;;31.88;14.95;;;;;;;4.96;100.00;96654.03;4992730;28;20041;-51
2020/12/16 10:52:38;;;;;;;36.08;15.45;;;;;;;5.14;100.00;96658.94;5023327;28;20523;-54
2020/12/16 10:55:05;;;;;;;37.78;14.98;;;;;;;5.56;100.00;96657.69;4980213;28;20047;-50
2020/12/16 10:57:33;;;;;;;34.90;14.00;;;;;;;5.43;100.00;96655.09;5017856;28;20139;-53
2020/12/16 11:00:00;;;;;;;45.75;24.80;;;;;;;5.51;99.84;96658.97;4990680;28;20055;-54
2020/12/16 11:02:28;;;;;;;39.70;19.80;;;;;;;5.46;100.00;96659.28;5024410;28;20425;-52
2020/12/16 11:04:55;;;;;;;37.85;15.48;;;;;;;5.32;100.00;96665.47;4999320;28;20057;-51
2020/12/16 11:07:23;;;;;;;35.42;15.73;;;;;;;5.26;100.00;96665.91;5025310;28;20056;-52
2020/12/16 11:09:50;;;;;;;38.17;16.77;;;;;;;4.92;100.00;96665.63;5023442;28;20044;-54
2020/12/16 11:12:17;;;;;;;33.97;14.57;;;;;;;4.91;100.00;96663.09;4998106;28;20495;-53
2020/12/16 11:14:45;;;;;;;35.28;15.63;;;;;;;4.99;100.00;96664.28;5026632;28;20066;-54
2020/12/16 11:17:12;;;;;;;33.85;14.43;;;;;;;4.99;100.00;96656.44;4985702;28;20037;-48
2020/12/16 11:19:39;;;;;;;35.05;15.43;;;;;;;5.17;100.00;96659.53;5056416;28;20037;-52
2020/12/16 11:22:07;;;;;;;38.13;15.35;;;;;;;5.08;100.00;96661.97;4985381;28;20133;-54
2020/12/16 11:24:34;;;;;;;31.95;14.43;;;;;;;5.35;100.00;96660.03;5027235;28;20041;-51
2020/12/16 11:27:02;;;;;;;33.85;14.82;;;;;;;5.16;100.00;96662.25;4987162;28;20057;-52
2020/12/16 11:29:29;;;;;;;32.45;14.40;;;;;;;4.76;100.00;96657.16;5024933;28;20095;-49
2020/12/16 11:32:00;;;;;;;41.03;16.42;;;;;;;4.97;100.00;96666.13;4973733;28;20448;-52
2020/12/16 11:34:27;;;;;;;;;;;;;;;4.92;100.00;96663.03;5013554;28;20052;-50